Waukegan, IL (60079)

3:36 PM CDT on September 30, 2016 (GMT -0500)
North Side, Waukegan | | Change Station

Elev 659 ft 42.37 °N, 87.83 °W | Updated 0 second ago

Overcast
Overcast
63.7 °F
Feels Like 63.7 °F
N
5.8
Wind Variable Wind from NNW
Gusts 7.4 mph

Today
High -- | Low -- °F
--% Chance of Precip.
Yesterday
High -- | Low -- °F
Precip. -- in
Pressure 30.09 in
Visibility 10.0 miles
Clouds Few 1200 ft
Mostly Cloudy 1900 ft
Overcast 2700 ft
Dew Point 57 °F
Humidity 79%
Rainfall 0.13 in
Snow Depth Not available.
6:48 AM 6:33 PM
Waning Crescent, 0% visible
METAR KUGN 301955Z 04011G17KT 10SM FEW012 BKN019 OVC027 18/16 A3011 RMK AO2 SLP190 T01780156
Pressure 30.09 in
Visibility 10.0 miles
Clouds Few 1200 ft
Mostly Cloudy 1900 ft
Overcast 2700 ft
Dew Point 57 °F
Humidity 79%
Rainfall 0.13 in
Snow Depth Not available.
6:48 AM 6:33 PM
Waning Crescent, 0% visible
METAR KUGN 301955Z 04011G17KT 10SM FEW012 BKN019 OVC027 18/16 A3011 RMK AO2 SLP190 T01780156

10-Day Weather Forecast

Almanac

Astronomy

Sep. 30, 2016 Rise Set
Actual Time
Civil Twilight
Nautical Twilight
Astronomical Twilight
Moon
Length of Visible Light
Length of Day
Tomorrow will be .
, % of the Moon is Illuminated

Today's Extremes

State Highs State Lows

Community

WunderPhotos

Upload Photos

1,942,764 photos uploaded!

WunderBlog® & News

Nearby

Air Quality

  Air Quality AQ Index Pollutant
Not available.

Snow Depth

Station Depth Elevation

Earthquake Activity

City Distance Mag. Time & Date
Minimum magnitude displayed is 2.5.

Coastal Water Temperatures

Place Temperature

Stations

Nearby Weather Stations

Station Location Temp. Windchill Dew Point Humidity Wind Precip. Elev Updated Type
                   

Watches & Warnings

There are currently no watches in effect.